Time;durP1;ratioP1;P1;durP2;ratioP2;P2;SDS_P1;SDS_P2;PMS_P1;PMS_P2;Temp;Humidity;BMP_temperature;BMP_pressure;BME280_temperature;BME280_humidity;BME280_pressure;Samples;Min_cycle;Max_cycle;Signal;HPM_P1;HPM_P2
2021/10/15 00:01:25;;;;;;;18.27;15.10;;;8.40;99.90;;;;;;5080921;28;20440;-90
2021/10/15 00:03:52;;;;;;;20.10;13.40;;;8.40;99.90;;;;;;5078170;28;20432;-91
2021/10/15 00:06:21;;;;;;;17.77;12.80;;;8.30;99.90;;;;;;5080872;28;20791;-89
2021/10/15 00:08:49;;;;;;;18.93;15.37;;;8.30;99.90;;;;;;5083831;28;20455;-91
2021/10/15 00:11:16;;;;;;;16.40;13.80;;;8.30;99.90;;;;;;5093866;28;20440;-91
2021/10/15 00:13:48;;;;;;;18.97;13.83;;;8.30;99.90;;;;;;5085087;28;20423;-91
2021/10/15 00:16:16;;;;;;;22.53;13.67;;;8.30;99.90;;;;;;5089700;28;20470;-91
2021/10/15 00:18:43;;;;;;;18.10;13.60;;;8.30;99.90;;;;;;5084412;28;20546;-90
2021/10/15 00:21:10;;;;;;;13.83;12.33;;;8.30;99.90;;;;;;5086579;28;20438;-90
2021/10/15 00:23:36;;;;;;;17.67;13.30;;;8.20;99.90;;;;;;5086226;28;20423;-90
2021/10/15 00:26:05;;;;;;;16.20;12.80;;;8.10;99.90;;;;;;5077208;28;20452;-90
2021/10/15 00:28:31;;;;;;;17.23;12.90;;;8.00;99.90;;;;;;5072704;28;20448;-91
2021/10/15 00:30:58;;;;;;;17.40;13.20;;;8.00;99.90;;;;;;5077005;28;20455;-91
2021/10/15 00:33:25;;;;;;;16.27;13.83;;;8.00;99.90;;;;;;5078916;28;20806;-90
2021/10/15 00:35:52;;;;;;;13.87;11.07;;;7.90;99.90;;;;;;5074255;28;20958;-90
2021/10/15 00:38:19;;;;;;;13.97;12.67;;;7.90;99.90;;;;;;5073789;28;20558;-89
2021/10/15 00:40:46;;;;;;;13.10;11.10;;;7.90;99.90;;;;;;5075796;28;20493;-90
2021/10/15 00:43:14;;;;;;;15.10;12.80;;;7.90;99.90;;;;;;5074556;28;20447;-89
2021/10/15 00:45:41;;;;;;;18.60;13.50;;;7.90;99.90;;;;;;5072288;28;20885;-90
2021/10/15 00:48:07;;;;;;;16.70;14.83;;;7.90;99.90;;;;;;5074109;28;20463;-89
2021/10/15 00:50:36;;;;;;;18.33;13.57;;;7.90;99.90;;;;;;5072949;28;20440;-90
2021/10/15 00:53:03;;;;;;;15.20;13.60;;;7.90;99.90;;;;;;5074103;28;20435;-90
2021/10/15 00:55:31;;;;;;;18.73;14.60;;;7.80;99.90;;;;;;5073129;28;20448;-90
2021/10/15 00:57:58;;;;;;;16.10;13.17;;;7.80;99.90;;;;;;5072749;28;20528;-90
2021/10/15 01:00:26;;;;;;;16.97;12.90;;;7.80;99.90;;;;;;5079237;28;20468;-90
2021/10/15 01:02:53;;;;;;;15.83;13.10;;;7.80;99.90;;;;;;5096561;28;20443;-90
2021/10/15 01:05:19;;;;;;;15.53;13.17;;;7.80;99.90;;;;;;5086882;28;20442;-90
2021/10/15 01:07:46;;;;;;;13.53;12.13;;;7.60;99.90;;;;;;5084616;28;20431;-90
2021/10/15 01:10:13;;;;;;;19.17;12.63;;;7.60;99.90;;;;;;5088348;28;20435;-90
2021/10/15 01:12:41;;;;;;;21.83;14.20;;;7.60;99.90;;;;;;5075878;28;20944;-90
2021/10/15 01:15:08;;;;;;;18.50;13.57;;;7.60;99.90;;;;;;5076920;28;20444;-90
2021/10/15 01:17:36;;;;;;;19.80;13.13;;;7.60;99.90;;;;;;5092781;28;20466;-89
2021/10/15 01:20:06;;;;;;;17.90;12.83;;;7.60;99.90;;;;;;5094816;28;20557;-90
2021/10/15 01:22:32;;;;;;;19.73;13.60;;;7.60;99.90;;;;;;5084320;28;20458;-90
2021/10/15 01:24:59;;;;;;;18.87;14.83;;;7.60;99.90;;;;;;5076755;28;20444;-90
2021/10/15 01:27:26;;;;;;;17.10;13.87;;;7.50;99.90;;;;;;5085148;28;20455;-90
2021/10/15 01:29:53;;;;;;;16.30;12.10;;;7.50;99.90;;;;;;5094605;28;20466;-90
2021/10/15 01:32:20;;;;;;;16.90;13.57;;;7.40;99.90;;;;;;5085407;28;20440;-89
2021/10/15 01:34:47;;;;;;;15.70;12.23;;;7.50;99.90;;;;;;5082966;28;20443;-91
2021/10/15 01:37:16;;;;;;;16.60;13.90;;;7.50;99.90;;;;;;5074621;28;20446;-90
2021/10/15 01:39:42;;;;;;;16.90;13.17;;;7.50;99.90;;;;;;5075477;28;20479;-91
2021/10/15 01:42:53;;;;;;;17.13;12.33;;;7.40;99.90;;;;;;5076655;28;20560;-90
2021/10/15 01:44:57;;;;;;;14.40;12.90;;;7.40;99.90;;;;;;5073383;28;20434;-90
2021/10/15 01:47:23;;;;;;;20.10;13.03;;;7.30;99.90;;;;;;5074006;28;20451;-90
2021/10/15 01:49:50;;;;;;;18.00;13.03;;;7.30;99.90;;;;;;5074238;28;21156;-90
2021/10/15 01:52:18;;;;;;;14.70;13.10;;;7.30;99.90;;;;;;5071307;28;20444;-90
2021/10/15 01:54:45;;;;;;;17.53;13.23;;;7.30;99.90;;;;;;5073037;28;20436;-90
2021/10/15 01:57:12;;;;;;;14.97;12.97;;;7.30;99.90;;;;;;5070758;28;20450;-91
2021/10/15 01:59:38;;;;;;;14.00;12.53;;;7.30;99.90;;;;;;5071917;28;20859;-90
2021/10/15 02:02:05;;;;;;;18.20;14.90;;;7.30;99.90;;;;;;5071387;28;20931;-90
2021/10/15 02:04:32;;;;;;;13.43;12.03;;;7.30;99.90;;;;;;5069669;28;20443;-90
2021/10/15 02:06:58;;;;;;;14.70;12.57;;;7.20;99.90;;;;;;5073654;28;20940;-90
2021/10/15 02:09:27;;;;;;;20.60;13.20;;;7.20;99.90;;;;;;5071913;28;20455;-89
2021/10/15 02:11:53;;;;;;;13.87;12.17;;;7.20;99.90;;;;;;5080501;28;20440;-89
2021/10/15 02:14:20;;;;;;;15.23;12.70;;;7.20;99.90;;;;;;5075529;28;20863;-90
2021/10/15 02:16:47;;;;;;;16.83;11.90;;;7.20;99.90;;;;;;5072611;28;20432;-90
2021/10/15 02:19:13;;;;;;;14.60;13.03;;;7.10;99.90;;;;;;5094610;28;20483;-90
2021/10/15 02:21:40;;;;;;;13.93;12.27;;;7.10;99.90;;;;;;5089330;28;20450;-91
2021/10/15 02:24:07;;;;;;;16.20;13.20;;;7.00;99.90;;;;;;5086784;28;20436;-90
2021/10/15 02:26:35;;;;;;;16.30;12.67;;;7.00;99.90;;;;;;5093894;28;20455;-90
2021/10/15 02:29:02;;;;;;;17.37;13.33;;;7.00;99.90;;;;;;5082732;28;20531;-90
2021/10/15 02:31:29;;;;;;;13.70;12.00;;;7.00;99.90;;;;;;5088220;28;20432;-90
2021/10/15 02:33:56;;;;;;;16.67;12.50;;;7.00;99.90;;;;;;5087991;28;20431;-90
2021/10/15 02:36:22;;;;;;;15.60;11.93;;;7.00;99.90;;;;;;5074841;28;20943;-90
2021/10/15 02:38:49;;;;;;;19.63;13.97;;;7.00;99.90;;;;;;5074174;28;20810;-90
2021/10/15 02:41:16;;;;;;;18.47;13.57;;;7.00;99.90;;;;;;5070535;28;20455;-90
2021/10/15 02:43:44;;;;;;;14.93;13.33;;;7.00;99.90;;;;;;5073499;28;20450;-90
2021/10/15 02:46:11;;;;;;;28.23;13.63;;;6.90;99.90;;;;;;5074599;28;20944;-90
2021/10/15 02:48:38;;;;;;;15.23;13.03;;;6.90;99.90;;;;;;5075385;28;20444;-90
2021/10/15 02:51:05;;;;;;;14.37;12.60;;;6.90;99.90;;;;;;5075822;28;20498;-90
2021/10/15 02:53:32;;;;;;;14.50;11.80;;;6.90;99.90;;;;;;5076081;28;20439;-90
2021/10/15 02:55:59;;;;;;;17.20;12.20;;;6.80;99.90;;;;;;5096027;28;20434;-89
2021/10/15 02:58:25;;;;;;;15.13;11.60;;;6.80;99.90;;;;;;5098790;28;20471;-89
2021/10/15 03:00:54;;;;;;;19.97;12.93;;;6.70;99.90;;;;;;5078786;28;20475;-89
2021/10/15 03:03:20;;;;;;;14.77;12.60;;;6.70;99.90;;;;;;5076036;28;21002;-91
2021/10/15 03:05:47;;;;;;;15.97;11.90;;;6.70;99.90;;;;;;5075499;28;20458;-91
2021/10/15 03:08:14;;;;;;;18.10;12.83;;;6.70;99.90;;;;;;5082322;28;20470;-90
2021/10/15 03:10:41;;;;;;;17.40;14.07;;;6.80;99.90;;;;;;5098653;28;20539;-91
2021/10/15 03:13:08;;;;;;;14.30;12.00;;;6.70;99.90;;;;;;5093423;28;20423;-90
2021/10/15 03:15:35;;;;;;;13.80;11.77;;;6.80;99.90;;;;;;5098907;28;20423;-90
2021/10/15 03:18:03;;;;;;;15.50;12.07;;;6.70;99.90;;;;;;5083828;28;20997;-89
2021/10/15 03:20:30;;;;;;;15.43;10.83;;;6.70;99.90;;;;;;5079729;28;20479;-89
2021/10/15 03:22:57;;;;;;;16.17;12.50;;;6.70;99.90;;;;;;5081399;28;20427;-89
2021/10/15 03:25:23;;;;;;;21.87;14.20;;;6.70;99.90;;;;;;5086748;28;20436;-89
2021/10/15 03:27:50;;;;;;;14.30;12.00;;;6.70;99.90;;;;;;5098368;28;20466;-88
2021/10/15 03:30:17;;;;;;;15.63;13.73;;;6.70;99.90;;;;;;5079585;28;20435;-89
2021/10/15 03:32:43;;;;;;;15.10;12.73;;;6.70;99.90;;;;;;5094680;28;20446;-89
2021/10/15 03:35:12;;;;;;;19.40;12.90;;;6.70;99.90;;;;;;5096484;28;20444;-88
2021/10/15 03:37:39;;;;;;;16.50;13.40;;;6.60;99.90;;;;;;5086289;28;20439;-89
2021/10/15 03:40:07;;;;;;;15.73;10.97;;;6.60;99.90;;;;;;5090538;28;20475;-89
2021/10/15 03:42:34;;;;;;;18.53;12.63;;;6.70;99.90;;;;;;5082862;28;20475;-89
2021/10/15 03:45:00;;;;;;;15.40;12.30;;;6.70;99.90;;;;;;5077373;28;20439;-90
2021/10/15 03:47:27;;;;;;;14.80;12.77;;;6.70;99.90;;;;;;5077181;28;20971;-89
2021/10/15 03:49:54;;;;;;;16.60;12.80;;;6.70;99.90;;;;;;5073641;28;20473;-88
2021/10/15 03:52:22;;;;;;;16.43;13.43;;;6.60;99.90;;;;;;5075680;28;20462;-90
2021/10/15 03:54:49;;;;;;;15.10;12.20;;;6.60;99.90;;;;;;5080023;28;20462;-90
2021/10/15 03:57:16;;;;;;;18.83;13.90;;;6.60;99.90;;;;;;5085854;28;20435;-89
2021/10/15 03:59:42;;;;;;;15.53;12.10;;;6.60;99.90;;;;;;5081230;28;20824;-90
2021/10/15 04:02:09;;;;;;;14.93;12.73;;;6.60;99.90;;;;;;5082095;28;20443;-89
2021/10/15 04:04:36;;;;;;;13.97;12.50;;;6.50;99.90;;;;;;5075256;28;20443;-89
2021/10/15 04:07:03;;;;;;;18.17;12.23;;;6.50;99.90;;;;;;5084995;28;20423;-88
2021/10/15 04:09:31;;;;;;;21.70;13.30;;;6.50;99.90;;;;;;5076498;28;20967;-90
2021/10/15 04:11:58;;;;;;;17.90;14.97;;;6.50;99.90;;;;;;5074714;28;20431;-90
2021/10/15 04:14:25;;;;;;;21.27;13.57;;;6.50;99.90;;;;;;5074735;28;20443;-90
2021/10/15 04:16:52;;;;;;;17.90;13.90;;;6.40;99.90;;;;;;5078167;28;20443;-90
2021/10/15 04:19:19;;;;;;;21.83;14.60;;;6.40;99.90;;;;;;5089679;28;20451;-89
2021/10/15 04:21:46;;;;;;;16.27;12.63;;;6.40;99.90;;;;;;5095322;28;20440;-89
2021/10/15 04:24:12;;;;;;;31.33;13.70;;;6.40;99.90;;;;;;5075248;28;20447;-89
2021/10/15 04:26:41;;;;;;;15.90;12.57;;;6.40;99.90;;;;;;5077967;28;20435;-90
2021/10/15 04:29:07;;;;;;;20.70;14.00;;;6.40;99.90;;;;;;5074221;28;20467;-90
2021/10/15 04:31:34;;;;;;;18.83;13.93;;;6.30;99.90;;;;;;5075058;28;20472;-90
2021/10/15 04:34:01;;;;;;;18.30;14.07;;;6.40;99.90;;;;;;5097474;28;20460;-90
2021/10/15 04:36:28;;;;;;;18.30;12.83;;;6.30;99.90;;;;;;5097555;28;20422;-90
2021/10/15 04:38:55;;;;;;;19.80;14.23;;;6.30;99.90;;;;;;5090114;28;20452;-90
2021/10/15 04:41:22;;;;;;;19.50;15.93;;;6.20;99.90;;;;;;5093485;28;20471;-89
2021/10/15 04:43:50;;;;;;;21.23;14.70;;;6.30;99.90;;;;;;5085667;28;20432;-90
2021/10/15 04:46:17;;;;;;;24.27;14.93;;;6.20;99.90;;;;;;5082292;28;20443;-88
2021/10/15 04:48:44;;;;;;;19.57;14.97;;;6.20;99.90;;;;;;5079297;28;20471;-87
2021/10/15 04:51:10;;;;;;;20.07;14.43;;;6.20;99.90;;;;;;5079659;28;20431;-87
2021/10/15 04:53:37;;;;;;;19.80;14.57;;;6.20;99.90;;;;;;5078957;28;20954;-88
2021/10/15 04:56:04;;;;;;;28.37;15.40;;;6.30;99.90;;;;;;5079678;28;20440;-87
2021/10/15 05:01:02;;;;;;;25.80;14.90;;;6.20;99.90;;;;;;5075569;28;20510;-93
2021/10/15 05:03:29;;;;;;;29.03;17.00;;;6.20;99.90;;;;;;5073369;28;20444;-92
2021/10/15 05:05:57;;;;;;;19.97;14.83;;;6.20;99.90;;;;;;5057202;28;20452;-92
2021/10/15 05:08:29;;;;;;;23.73;14.50;;;6.30;99.90;;;;;;5056110;28;20497;-93
2021/10/15 05:10:56;;;;;;;22.97;15.97;;;6.20;99.90;;;;;;5056443;28;20798;-92
2021/10/15 05:13:23;;;;;;;22.03;16.10;;;6.20;99.90;;;;;;5062393;28;20451;-92
2021/10/15 05:15:50;;;;;;;26.40;16.50;;;6.20;99.90;;;;;;5062400;28;20453;-92
2021/10/15 05:18:19;;;;;;;20.07;14.53;;;6.20;99.90;;;;;;5056527;28;20858;-92
2021/10/15 05:20:46;;;;;;;20.10;14.10;;;6.20;99.90;;;;;;5058578;28;20488;-92
2021/10/15 05:23:13;;;;;;;20.23;15.80;;;6.20;99.90;;;;;;5057882;28;20448;-92
2021/10/15 05:25:43;;;;;;;15.40;13.80;;;6.20;99.90;;;;;;5054840;28;20452;-91
2021/10/15 05:28:10;;;;;;;23.00;15.97;;;6.20;99.90;;;;;;5064269;28;20448;-93
2021/10/15 05:30:37;;;;;;;18.10;13.83;;;6.20;99.90;;;;;;5076492;28;20491;-94
2021/10/15 05:33:04;;;;;;;20.37;14.27;;;6.20;99.90;;;;;;5064151;28;20539;-93
2021/10/15 05:35:32;;;;;;;25.20;16.47;;;6.20;99.90;;;;;;5057737;28;20436;-91
2021/10/15 05:37:59;;;;;;;27.60;17.90;;;6.10;99.90;;;;;;5053707;28;20440;-92
2021/10/15 05:40:27;;;;;;;26.57;19.43;;;6.10;99.90;;;;;;5055322;28;20550;-91
2021/10/15 05:42:54;;;;;;;22.33;15.80;;;6.20;99.90;;;;;;5067338;28;20452;-91
2021/10/15 05:45:21;;;;;;;25.57;14.50;;;6.20;99.90;;;;;;5069822;28;20455;-91
2021/10/15 05:47:48;;;;;;;24.23;15.03;;;6.20;99.90;;;;;;5054020;28;20586;-91
2021/10/15 05:50:14;;;;;;;26.10;14.50;;;6.20;99.90;;;;;;5053270;28;20460;-92
2021/10/15 05:52:45;;;;;;;21.17;14.37;;;6.20;99.90;;;;;;5054300;28;20466;-92
2021/10/15 05:55:25;;;;;;;22.90;14.57;;;6.20;99.90;;;;;;5054632;28;20432;-91
2021/10/15 06:00:47;;;;;;;23.90;17.27;;;6.30;99.90;;;;;;5056868;28;20463;-91
2021/10/15 06:03:15;;;;;;;28.63;16.10;;;6.30;99.90;;;;;;5060097;28;20435;-91
2021/10/15 06:16:37;;;;;;;15.63;13.20;;;6.60;99.90;;;;;;5052629;28;20515;-88
2021/10/15 06:19:07;;;;;;;19.90;14.60;;;6.60;99.90;;;;;;5057907;28;20460;-89
2021/10/15 06:21:34;;;;;;;18.43;14.47;;;6.70;99.90;;;;;;5058205;28;20859;-89
2021/10/15 06:24:02;;;;;;;21.83;14.67;;;6.70;99.90;;;;;;5059692;28;20440;-88
2021/10/15 06:26:29;;;;;;;19.57;15.53;;;6.70;99.90;;;;;;5072320;28;20463;-89
2021/10/15 06:28:55;;;;;;;26.07;14.53;;;6.70;99.90;;;;;;5056553;28;20532;-89
2021/10/15 06:31:22;;;;;;;23.77;14.40;;;6.80;99.90;;;;;;5056633;28;20452;-90
2021/10/15 06:33:49;;;;;;;17.27;13.70;;;6.80;99.90;;;;;;5056760;28;20451;-89
2021/10/15 06:36:16;;;;;;;21.33;15.63;;;6.80;99.90;;;;;;5058022;28;20952;-89
2021/10/15 06:38:43;;;;;;;23.17;13.40;;;6.70;99.90;;;;;;5055825;28;20933;-89
2021/10/15 06:41:11;;;;;;;22.07;14.17;;;6.80;99.90;;;;;;5057108;28;21118;-89
2021/10/15 06:43:38;;;;;;;26.93;14.30;;;6.80;99.90;;;;;;5056531;28;20441;-89
2021/10/15 06:46:05;;;;;;;18.40;13.33;;;6.80;99.90;;;;;;5055368;28;20945;-90
2021/10/15 06:48:32;;;;;;;18.50;13.80;;;6.90;99.90;;;;;;5055326;28;20455;-90
2021/10/15 06:50:59;;;;;;;18.90;13.43;;;6.90;99.90;;;;;;5054136;28;20468;-89
2021/10/15 06:53:25;;;;;;;16.43;13.30;;;7.00;99.90;;;;;;5055829;28;20448;-90
2021/10/15 06:55:52;;;;;;;26.30;15.40;;;7.10;99.90;;;;;;5055659;28;20510;-90
2021/10/15 06:58:20;;;;;;;20.43;16.00;;;7.10;99.90;;;;;;5063337;28;20433;-90
2021/10/15 07:00:47;;;;;;;22.80;13.53;;;7.20;99.90;;;;;;5058128;28;20487;-90
2021/10/15 07:03:14;;;;;;;27.50;16.13;;;7.20;99.90;;;;;;5057620;28;20537;-90
2021/10/15 07:05:41;;;;;;;21.63;13.57;;;7.30;99.90;;;;;;5054765;28;20494;-90
2021/10/15 07:08:08;;;;;;;26.67;15.93;;;7.40;99.90;;;;;;5055847;28;21124;-90
2021/10/15 07:10:35;;;;;;;26.00;14.50;;;7.40;99.90;;;;;;5058333;28;20467;-91
2021/10/15 07:13:01;;;;;;;19.33;14.47;;;7.50;99.90;;;;;;5055204;28;20463;-90
2021/10/15 07:15:30;;;;;;;19.30;15.63;;;7.40;99.90;;;;;;5056627;28;20444;-90
2021/10/15 07:17:57;;;;;;;17.77;14.50;;;7.50;99.90;;;;;;5055597;28;20444;-90
2021/10/15 07:20:27;;;;;;;23.90;16.97;;;7.50;99.90;;;;;;5055464;28;20477;-90
2021/10/15 07:22:54;;;;;;;24.07;14.80;;;7.50;99.90;;;;;;5055762;28;20440;-90
2021/10/15 07:25:22;;;;;;;20.10;11.77;;;7.70;99.90;;;;;;5057276;28;20440;-90
2021/10/15 07:27:50;;;;;;;17.77;12.87;;;7.70;99.90;;;;;;5057276;28;20455;-89
2021/10/15 07:30:17;;;;;;;15.07;12.20;;;7.90;99.90;;;;;;5066262;28;20456;-90
2021/10/15 07:32:45;;;;;;;12.97;11.63;;;7.90;99.90;;;;;;5058582;28;20448;-90
2021/10/15 07:35:12;;;;;;;15.40;12.83;;;8.00;99.90;;;;;;5071650;28;20427;-88
2021/10/15 07:37:40;;;;;;;14.20;12.30;;;8.10;99.90;;;;;;5066327;28;20941;-90
2021/10/15 07:40:08;;;;;;;14.87;13.27;;;8.10;99.90;;;;;;5062516;28;20457;-90
2021/10/15 07:42:35;;;;;;;15.60;11.30;;;8.20;99.90;;;;;;5070016;28;20452;-89
2021/10/15 07:45:02;;;;;;;20.50;13.07;;;8.30;99.90;;;;;;5072406;28;20429;-90
2021/10/15 07:47:28;;;;;;;12.53;10.90;;;8.40;99.90;;;;;;5064179;28;20444;-90
2021/10/15 07:49:56;;;;;;;14.77;12.27;;;8.50;99.90;;;;;;5057407;28;20452;-90
2021/10/15 07:52:23;;;;;;;16.97;11.63;;;8.60;99.90;;;;;;5056095;28;20437;-91
2021/10/15 07:54:50;;;;;;;16.27;13.47;;;8.70;99.90;;;;;;5055110;28;20866;-91
2021/10/15 07:57:17;;;;;;;21.63;11.97;;;8.90;99.90;;;;;;5054180;28;20436;-90
2021/10/15 07:59:44;;;;;;;15.33;13.73;;;9.00;99.90;;;;;;5055549;28;20479;-90
2021/10/15 08:02:11;;;;;;;12.93;11.53;;;9.10;99.90;;;;;;5055999;28;20479;-90
2021/10/15 08:04:38;;;;;;;14.57;12.47;;;9.40;99.90;;;;;;5054997;28;20444;-89
2021/10/15 08:07:06;;;;;;;15.60;11.73;;;9.90;99.90;;;;;;5056357;28;20448;-90
2021/10/15 08:09:35;;;;;;;17.03;12.90;;;10.70;99.90;;;;;;5071084;28;20448;-90
2021/10/15 08:12:01;;;;;;;15.67;12.20;;;11.00;99.90;;;;;;5059874;28;20500;-89
2021/10/15 08:14:28;;;;;;;13.53;11.17;;;10.80;99.90;;;;;;5060055;28;20428;-89
2021/10/15 08:16:55;;;;;;;16.80;11.40;;;10.70;99.90;;;;;;5061322;28;20477;-89
2021/10/15 08:19:22;;;;;;;11.63;10.40;;;10.70;99.90;;;;;;5058930;28;20449;-90
2021/10/15 08:21:48;;;;;;;12.27;10.27;;;10.90;99.90;;;;;;5056663;28;20472;-89
2021/10/15 08:24:16;;;;;;;12.97;11.27;;;10.70;99.90;;;;;;5058131;28;20436;-88
2021/10/15 08:26:43;;;;;;;15.20;10.40;;;10.50;99.90;;;;;;5057919;28;20452;-88
2021/10/15 08:29:10;;;;;;;11.77;10.17;;;10.30;99.90;;;;;;5057186;28;20464;-90
2021/10/15 08:31:37;;;;;;;13.77;11.37;;;10.30;99.90;;;;;;5056877;28;20441;-89
2021/10/15 08:34:07;;;;;;;13.77;11.70;;;10.20;99.90;;;;;;5057543;28;20820;-90
2021/10/15 08:36:34;;;;;;;12.80;11.07;;;10.30;99.90;;;;;;5057663;28;20467;-89
2021/10/15 08:39:01;;;;;;;11.60;10.40;;;10.40;99.90;;;;;;5057560;28;20452;-88
2021/10/15 08:41:29;;;;;;;11.13;9.93;;;10.60;99.90;;;;;;5061563;28;20468;-90
2021/10/15 08:43:58;;;;;;;11.47;10.33;;;10.70;99.90;;;;;;5063155;28;20441;-89
2021/10/15 08:46:25;;;;;;;12.10;10.23;;;10.80;99.90;;;;;;5058525;28;20508;-88
2021/10/15 08:48:53;;;;;;;11.27;10.13;;;10.90;99.90;;;;;;5076593;28;20548;-89
2021/10/15 08:51:22;;;;;;;12.67;10.70;;;10.90;99.90;;;;;;5075815;28;20440;-88
2021/10/15 08:53:51;;;;;;;12.20;10.20;;;11.00;99.90;;;;;;5060397;28;20448;-88
2021/10/15 08:56:18;;;;;;;11.17;9.60;;;11.10;99.90;;;;;;5059521;28;20486;-89
2021/10/15 08:58:48;;;;;;;12.93;9.93;;;11.10;99.90;;;;;;5058134;28;20845;-89
2021/10/15 09:01:16;;;;;;;11.70;10.37;;;11.20;99.90;;;;;;5060701;28;20481;-89
2021/10/15 09:03:43;;;;;;;15.23;11.30;;;11.20;99.90;;;;;;5060409;28;20805;-89
2021/10/15 09:06:11;;;;;;;15.23;12.60;;;11.10;99.90;;;;;;5059401;28;20451;-89
2021/10/15 09:08:47;;;;;;;12.33;10.60;;;11.20;99.90;;;;;;5059562;28;20933;-89
2021/10/15 09:11:28;;;;;;;15.37;11.77;;;11.30;99.90;;;;;;5063730;28;20448;-89
2021/10/15 09:14:12;;;;;;;13.30;11.07;;;11.50;99.90;;;;;;5058893;28;20444;-89
2021/10/15 09:17:00;;;;;;;11.77;10.10;;;11.50;99.90;;;;;;5059333;28;20583;-89
2021/10/15 09:19:29;;;;;;;12.70;10.50;;;11.50;99.90;;;;;;5075927;28;20470;-88
2021/10/15 09:22:15;;;;;;;13.60;12.20;;;11.50;99.90;;;;;;5068969;28;20481;-89
2021/10/15 09:24:44;;;;;;;12.47;11.27;;;11.60;99.90;;;;;;5056973;28;20816;-88
2021/10/15 09:27:16;;;;;;;12.60;9.50;;;12.00;99.90;;;;;;5074628;28;20451;-89
2021/10/15 09:29:47;;;;;;;14.40;11.13;;;12.10;99.90;;;;;;5065451;28;20463;-89
2021/10/15 09:32:15;;;;;;;13.37;10.30;;;12.30;99.90;;;;;;5059958;28;20449;-88
2021/10/15 09:34:42;;;;;;;12.40;10.83;;;12.60;99.90;;;;;;5057490;28;20448;-89
2021/10/15 09:37:17;;;;;;;10.30;9.20;;;13.10;99.90;;;;;;5056880;28;20746;-89
2021/10/15 09:39:44;;;;;;;11.27;9.27;;;13.20;99.90;;;;;;5062889;28;20458;-89
2021/10/15 09:42:26;;;;;;;13.03;9.87;;;13.30;99.90;;;;;;5073323;28;20499;-89
2021/10/15 09:45:00;;;;;;;12.47;11.20;;;13.40;99.90;;;;;;5056665;28;20454;-89
2021/10/15 09:47:28;;;;;;;11.50;9.67;;;13.50;99.90;;;;;;5063721;28;20428;-88
2021/10/15 09:49:57;;;;;;;16.87;10.97;;;13.60;99.90;;;;;;5062821;28;20987;-89
2021/10/15 09:52:32;;;;;;;11.03;9.37;;;13.70;99.90;;;;;;5053764;28;20446;-90
2021/10/15 09:55:03;;;;;;;12.63;11.30;;;13.80;99.90;;;;;;5054134;28;20464;-89
2021/10/15 09:57:32;;;;;;;11.10;9.53;;;13.90;99.90;;;;;;5068142;28;20449;-90
2021/10/15 10:00:01;;;;;;;11.30;10.20;;;14.50;99.50;;;;;;5059038;28;20469;-89
2021/10/15 10:02:29;;;;;;;9.63;8.60;;;16.20;97.00;;;;;;5074885;28;20482;-89
2021/10/15 10:04:56;;;;;;;10.47;9.03;;;18.30;93.20;;;;;;5059004;28;20452;-89
2021/10/15 10:07:24;;;;;;;9.97;8.90;;;19.80;88.00;;;;;;5054013;28;20452;-89
2021/10/15 10:09:52;;;;;;;9.20;7.97;;;21.70;81.00;;;;;;5054248;28;20486;-91
2021/10/15 10:12:19;;;;;;;11.80;8.60;;;22.80;74.20;;;;;;5056353;28;20447;-88
2021/10/15 10:14:46;;;;;;;9.33;8.40;;;23.00;70.60;;;;;;5055810;28;20448;-90
2021/10/15 10:17:24;;;;;;;7.80;7.00;;;23.90;67.80;;;;;;5058785;28;20449;-88
2021/10/15 10:19:55;;;;;;;7.50;6.80;;;24.30;62.80;;;;;;5054544;28;20884;-90
2021/10/15 10:22:24;;;;;;;7.70;7.00;;;23.40;63.90;;;;;;5054495;28;20862;-89
2021/10/15 10:24:55;;;;;;;6.60;6.10;;;23.30;63.60;;;;;;5055495;28;20873;-89
2021/10/15 10:27:30;;;;;;;6.90;5.90;;;23.60;63.20;;;;;;5055237;28;20786;-90
2021/10/15 10:29:58;;;;;;;6.67;5.83;;;23.40;62.10;;;;;;5056390;28;20473;-88
2021/10/15 10:32:27;;;;;;;13.67;6.87;;;24.40;62.20;;;;;;5055330;28;20443;-90
2021/10/15 10:34:54;;;;;;;7.47;6.70;;;25.00;59.20;;;;;;5058105;28;20451;-89
2021/10/15 10:37:22;;;;;;;10.53;7.37;;;25.40;57.30;;;;;;5055045;28;20451;-90
2021/10/15 10:40:04;;;;;;;7.83;7.13;;;26.20;56.50;;;;;;5059452;28;20460;-89
2021/10/15 10:42:31;;;;;;;10.10;7.40;;;27.30;53.90;;;;;;5075108;28;20552;-91
2021/10/15 10:45:11;;;;;;;6.87;6.27;;;27.00;52.50;;;;;;5057527;28;20440;-90
2021/10/15 10:47:40;;;;;;;6.93;6.23;;;27.30;52.20;;;;;;5058492;28;20440;-90
2021/10/15 10:50:11;;;;;;;6.80;6.20;;;28.40;50.90;;;;;;5055917;28;20478;-91
2021/10/15 10:52:59;;;;;;;5.60;5.10;;;30.30;48.90;;;;;;5059199;28;20445;-90
2021/10/15 10:55:34;;;;;;;5.60;5.10;;;31.10;45.10;;;;;;5058033;28;20501;-90
2021/10/15 10:58:01;;;;;;;5.30;4.80;;;32.70;43.70;;;;;;5055434;28;20443;-90
2021/10/15 11:00:30;;;;;;;6.03;5.53;;;34.10;41.40;;;;;;5055595;28;20559;-90
2021/10/15 11:03:00;;;;;;;6.40;5.67;;;34.80;38.80;;;;;;5057337;28;20487;-90
2021/10/15 11:05:39;;;;;;;5.93;5.47;;;34.00;38.10;;;;;;5056337;28;20471;-91
2021/10/15 11:08:30;;;;;;;6.40;5.80;;;33.90;38.40;;;;;;5058688;28;20448;-90
2021/10/15 11:11:39;;;;;;;6.73;6.13;;;33.80;38.60;;;;;;5067918;28;20516;-89
2021/10/15 11:14:06;;;;;;;7.23;6.57;;;33.50;38.00;;;;;;5052072;28;20964;-91
2021/10/15 11:16:33;;;;;;;5.70;5.20;;;32.70;38.70;;;;;;5071392;28;20447;-90
2021/10/15 11:19:01;;;;;;;7.10;6.50;;;31.40;39.40;;;;;;5064429;28;20527;-90
2021/10/15 11:21:28;;;;;;;7.53;6.23;;;30.80;41.40;;;;;;5062396;28;20478;-90
2021/10/15 11:24:10;;;;;;;6.27;5.23;;;31.40;40.80;;;;;;5063505;28;20448;-89
2021/10/15 11:26:36;;;;;;;6.43;5.93;;;31.30;40.30;;;;;;5067090;28;20440;-88
2021/10/15 11:29:03;;;;;;;7.77;5.73;;;31.70;40.30;;;;;;5078617;28;20452;-88
2021/10/15 11:31:30;;;;;;;5.00;4.57;;;32.00;39.50;;;;;;5071167;28;20442;-89
2021/10/15 11:34:09;;;;;;;4.43;4.03;;;31.30;39.70;;;;;;5075035;28;20436;-88
2021/10/15 11:36:36;;;;;;;4.80;4.37;;;30.00;41.00;;;;;;5062535;28;20431;-87
2021/10/15 11:39:03;;;;;;;4.63;4.03;;;29.30;41.80;;;;;;5061416;28;20463;-89
2021/10/15 11:41:30;;;;;;;4.60;4.23;;;28.90;43.20;;;;;;5060190;28;20449;-88
2021/10/15 11:43:57;;;;;;;4.97;4.17;;;29.70;42.60;;;;;;5061983;28;20454;-91
2021/10/15 11:46:31;;;;;;;5.90;4.40;;;29.40;42.40;;;;;;5067661;28;20436;-91
2021/10/15 11:48:57;;;;;;;6.27;3.77;;;29.80;42.50;;;;;;5078990;28;20453;-91
2021/10/15 11:51:28;;;;;;;4.07;3.70;;;31.00;41.80;;;;;;5079328;28;20448;-92
2021/10/15 11:53:56;;;;;;;8.27;4.33;;;31.30;41.10;;;;;;5079630;28;20440;-92
2021/10/15 11:56:25;;;;;;;4.37;3.97;;;32.20;40.10;;;;;;5077945;28;20423;-91
2021/10/15 11:58:52;;;;;;;4.20;3.80;;;32.50;39.40;;;;;;5061603;28;20531;-88
2021/10/15 12:01:21;;;;;;;4.87;4.47;;;32.50;38.40;;;;;;5058595;28;20452;-88
2021/10/15 12:03:54;;;;;;;4.10;3.70;;;32.40;38.70;;;;;;5058482;28;20510;-88
2021/10/15 12:06:29;;;;;;;7.10;3.80;;;32.60;38.30;;;;;;5062430;28;20421;-86
2021/10/15 12:08:59;;;;;;;4.40;4.10;;;31.00;39.60;;;;;;5069818;28;20525;-87
2021/10/15 12:11:29;;;;;;;5.70;4.60;;;29.60;41.60;;;;;;5059931;28;20428;-87
2021/10/15 12:13:57;;;;;;;7.33;5.03;;;28.70;42.70;;;;;;5057418;28;20440;-88
2021/10/15 12:16:27;;;;;;;4.83;4.43;;;27.80;44.10;;;;;;5056966;28;20445;-87
2021/10/15 12:19:01;;;;;;;4.40;4.00;;;27.80;44.80;;;;;;5055823;28;21265;-87
2021/10/15 12:21:41;;;;;;;5.00;4.50;;;26.70;45.80;;;;;;5059769;28;20451;-88
2021/10/15 12:24:12;;;;;;;4.93;4.53;;;26.00;47.30;;;;;;5058936;28;20448;-87
2021/10/15 12:26:39;;;;;;;4.70;4.30;;;25.20;48.70;;;;;;5059307;28;20436;-90
2021/10/15 12:29:24;;;;;;;4.10;3.70;;;24.90;50.00;;;;;;5061859;28;20448;-89
2021/10/15 12:32:11;;;;;;;4.13;3.73;;;24.30;50.60;;;;;;5058640;28;20523;-90
2021/10/15 12:34:57;;;;;;;6.53;4.20;;;23.80;52.10;;;;;;5058168;28;20431;-88
2021/10/15 12:37:34;;;;;;;5.67;5.17;;;23.40;52.60;;;;;;5066882;28;20537;-88
2021/10/15 12:40:13;;;;;;;4.70;4.30;;;23.20;53.50;;;;;;5066781;28;20518;-88
2021/10/15 12:42:41;;;;;;;4.30;3.70;;;22.70;53.60;;;;;;5060897;28;20474;-88
2021/10/15 12:45:09;;;;;;;5.33;3.77;;;22.30;54.40;;;;;;5067579;28;20446;-86
2021/10/15 12:47:36;;;;;;;6.93;4.80;;;22.30;55.10;;;;;;5056033;28;20454;-88
2021/10/15 12:50:05;;;;;;;6.20;4.60;;;22.30;55.00;;;;;;5057464;28;20466;-87
2021/10/15 12:52:35;;;;;;;7.23;3.70;;;22.00;55.10;;;;;;5063145;28;20815;-88
2021/10/15 12:55:14;;;;;;;5.50;4.20;;;21.80;56.50;;;;;;5061707;28;20437;-87
2021/10/15 12:57:42;;;;;;;4.40;3.63;;;22.20;56.60;;;;;;5072176;28;20444;-86
2021/10/15 13:00:11;;;;;;;4.13;3.80;;;22.60;55.30;;;;;;5066813;28;20513;-87
2021/10/15 13:02:38;;;;;;;4.97;4.47;;;22.70;55.00;;;;;;5063512;28;20508;-85